createdAt,value
2022-11-16T00:02:12.222Z,15.70
2022-11-16T00:04:40.191Z,15.10
2022-11-16T00:07:08.408Z,14.50
2022-11-16T00:09:36.366Z,14.95
2022-11-16T00:12:06.963Z,13.43
2022-11-16T00:14:36.057Z,14.48
2022-11-16T00:17:04.633Z,15.00
2022-11-16T00:19:32.317Z,13.75
2022-11-16T00:22:00.155Z,12.80
2022-11-16T00:24:27.794Z,13.52
2022-11-16T00:26:56.211Z,12.48
2022-11-16T00:29:26.900Z,13.02
2022-11-16T00:31:55.494Z,12.70
2022-11-16T00:34:24.196Z,13.13
2022-11-16T00:36:52.598Z,11.70
2022-11-16T00:39:20.973Z,11.27
2022-11-16T00:41:48.866Z,10.25
2022-11-16T00:44:16.602Z,11.25
2022-11-16T00:46:44.233Z,10.63
2022-11-16T00:49:11.838Z,12.13
2022-11-16T00:51:39.492Z,11.38
2022-11-16T00:54:09.288Z,12.98
2022-11-16T00:56:37.999Z,12.25
2022-11-16T00:59:07.360Z,11.93
2022-11-16T01:01:35.297Z,13.88
2022-11-16T01:04:03.259Z,12.88
2022-11-16T01:06:30.963Z,11.50
2022-11-16T01:09:01.212Z,12.73
2022-11-16T01:11:47.492Z,12.98
2022-11-16T01:14:15.477Z,12.43
2022-11-16T01:16:44.338Z,12.63
2022-11-16T01:19:11.944Z,13.33
2022-11-16T01:21:39.486Z,12.80
2022-11-16T01:24:07.536Z,13.43
2022-11-16T01:26:35.437Z,11.85
2022-11-16T01:29:03.121Z,11.45
2022-11-16T01:31:34.953Z,11.32
2022-11-16T01:34:04.413Z,12.50
2022-11-16T01:36:32.149Z,12.90
2022-11-16T01:39:02.414Z,12.18
2022-11-16T01:41:36.355Z,11.18
2022-11-16T01:44:27.372Z,11.40
2022-11-16T01:47:09.717Z,10.90
2022-11-16T01:49:45.948Z,9.73
2022-11-16T01:52:21.563Z,8.65
2022-11-16T01:54:52.308Z,8.88
2022-11-16T01:57:31.695Z,8.25
2022-11-16T02:00:10.536Z,8.70
2022-11-16T02:03:04.366Z,9.60
2022-11-16T02:05:50.997Z,8.55
2022-11-16T02:08:58.994Z,8.60
2022-11-16T02:12:04.953Z,8.57
2022-11-16T02:15:20.275Z,8.70
2022-11-16T02:18:02.328Z,8.85
2022-11-16T02:20:51.014Z,8.27
2022-11-16T02:23:32.599Z,9.20
2022-11-16T02:26:37.535Z,8.82
2022-11-16T02:29:23.392Z,8.52
2022-11-16T02:32:02.326Z,9.05
2022-11-16T02:34:53.243Z,9.05
2022-11-16T02:37:23.757Z,8.95
2022-11-16T02:39:57.626Z,8.45
2022-11-16T02:42:44.957Z,7.40
2022-11-16T02:45:18.449Z,8.07
2022-11-16T02:47:48.786Z,7.40
2022-11-16T02:50:19.644Z,7.50
2022-11-16T02:52:47.638Z,7.78
2022-11-16T02:55:15.769Z,8.75
2022-11-16T02:58:03.629Z,7.50
2022-11-16T03:00:50.571Z,7.05
2022-11-16T03:03:40.392Z,8.13
2022-11-16T03:06:12.930Z,8.32
2022-11-16T03:08:54.592Z,10.23
2022-11-16T03:11:41.128Z,8.77
2022-11-16T03:14:15.003Z,8.75
2022-11-16T03:16:48.901Z,10.13
2022-11-16T03:19:22.518Z,9.00
2022-11-16T03:21:56.752Z,8.25
2022-11-16T03:24:25.542Z,7.50
2022-11-16T03:27:06.275Z,6.70
2022-11-16T03:29:59.167Z,6.07
2022-11-16T03:33:12.777Z,5.88
2022-11-16T03:36:01.606Z,5.45
2022-11-16T03:38:59.200Z,5.40
2022-11-16T03:41:29.094Z,5.72
2022-11-16T03:43:57.925Z,5.10
2022-11-16T03:46:25.673Z,3.97
2022-11-16T03:48:58.450Z,4.75
2022-11-16T03:51:29.083Z,4.45
2022-11-16T03:53:56.774Z,4.65
2022-11-16T03:56:24.420Z,3.80
2022-11-16T03:58:52.194Z,3.75
2022-11-16T04:01:19.804Z,3.38
2022-11-16T04:03:49.065Z,3.90
2022-11-16T04:06:37.389Z,3.55
2022-11-16T04:09:28.914Z,3.25
2022-11-16T04:12:15.233Z,3.63
2022-11-16T04:15:01.968Z,3.42
2022-11-16T04:17:50.339Z,3.45
2022-11-16T04:20:36.321Z,3.35
2022-11-16T04:23:27.014Z,3.30
2022-11-16T04:25:54.765Z,3.28
2022-11-16T04:28:25.860Z,5.82
2022-11-16T04:31:20.802Z,3.10
2022-11-16T04:34:27.637Z,2.80
2022-11-16T04:37:16.958Z,3.20
2022-11-16T04:39:44.542Z,3.55
2022-11-16T04:42:19.155Z,3.50
2022-11-16T04:45:08.296Z,3.22
2022-11-16T04:47:52.239Z,3.60
2022-11-16T04:50:22.023Z,3.45
2022-11-16T04:52:51.444Z,3.33
2022-11-16T04:55:19.166Z,3.00
2022-11-16T04:57:48.563Z,2.80
2022-11-16T05:00:17.575Z,2.80
2022-11-16T05:02:45.733Z,3.28
2022-11-16T05:05:13.700Z,2.80
2022-11-16T05:07:43.767Z,3.28
2022-11-16T05:10:17.480Z,3.22
2022-11-16T05:12:45.750Z,3.67
2022-11-16T05:15:14.241Z,3.35
2022-11-16T05:17:41.837Z,3.58
2022-11-16T05:20:35.801Z,2.97
2022-11-16T05:23:05.503Z,3.53
2022-11-16T05:28:08.295Z,3.10
2022-11-16T05:30:40.290Z,3.28
2022-11-16T05:33:08.329Z,3.78
2022-11-16T05:38:08.086Z,3.40
2022-11-16T05:40:40.489Z,3.47
2022-11-16T05:43:08.284Z,3.58
2022-11-16T05:45:43.053Z,3.65
2022-11-16T05:48:11.996Z,3.22
2022-11-16T05:50:42.736Z,5.40
2022-11-16T05:53:21.025Z,3.00
2022-11-16T05:55:49.519Z,4.05
2022-11-16T05:58:18.593Z,3.83
2022-11-16T06:00:47.307Z,3.42
2022-11-16T06:03:16.133Z,3.20
2022-11-16T06:05:43.764Z,4.00
2022-11-16T06:08:14.247Z,3.60
2022-11-16T06:10:42.268Z,3.35
2022-11-16T06:13:09.870Z,2.92
2022-11-16T06:15:39.064Z,3.28
2022-11-16T06:18:08.991Z,2.97
2022-11-16T06:20:40.905Z,3.40
2022-11-16T06:23:08.492Z,3.55
2022-11-16T06:25:39.747Z,3.40
2022-11-16T06:28:08.350Z,3.45
2022-11-16T06:30:38.506Z,3.28
2022-11-16T06:33:07.567Z,3.35
2022-11-16T06:35:35.119Z,3.97
2022-11-16T06:38:05.035Z,3.50
2022-11-16T06:40:35.517Z,3.40
2022-11-16T06:43:04.267Z,4.18
2022-11-16T06:45:32.196Z,4.15
2022-11-16T06:48:01.606Z,4.32
2022-11-16T06:50:29.239Z,4.38
2022-11-16T06:53:00.709Z,4.40
2022-11-16T06:55:29.906Z,4.50
2022-11-16T06:57:57.445Z,4.68
2022-11-16T07:00:25.718Z,4.72
2022-11-16T07:02:54.076Z,5.68
2022-11-16T07:05:21.794Z,5.15
2022-11-16T07:07:54.940Z,4.85
2022-11-16T07:10:23.324Z,4.80
2022-11-16T07:12:50.905Z,5.43
2022-11-16T07:15:20.714Z,4.93
2022-11-16T07:17:49.021Z,4.80
2022-11-16T07:20:16.747Z,5.43
2022-11-16T07:22:45.537Z,5.05
2022-11-16T07:25:15.476Z,6.07
2022-11-16T07:27:43.110Z,6.65
2022-11-16T07:30:12.786Z,5.50
2022-11-16T07:32:48.635Z,5.55
2022-11-16T07:35:23.291Z,5.38
2022-11-16T07:37:51.325Z,5.95
2022-11-16T07:40:19.612Z,6.22
2022-11-16T07:42:47.827Z,5.47
2022-11-16T07:45:15.462Z,6.53
2022-11-16T07:47:53.396Z,6.43
2022-11-16T07:50:53.508Z,6.68
2022-11-16T07:53:22.676Z,7.53
2022-11-16T07:55:53.717Z,7.82
2022-11-16T07:58:22.645Z,7.13
2022-11-16T08:00:50.901Z,6.97
2022-11-16T08:03:23.406Z,6.82
2022-11-16T08:06:02.988Z,7.25
2022-11-16T08:08:31.739Z,7.50
2022-11-16T08:11:03.890Z,7.85
2022-11-16T08:13:34.305Z,7.90
2022-11-16T08:16:15.849Z,8.27
2022-11-16T08:18:46.079Z,8.50
2022-11-16T08:21:17.213Z,7.72
2022-11-16T08:23:46.100Z,8.30
2022-11-16T08:26:22.073Z,8.13
2022-11-16T08:28:58.870Z,9.05
2022-11-16T08:31:30.893Z,9.73
2022-11-16T08:34:07.734Z,9.02
2022-11-16T08:36:37.037Z,8.82
2022-11-16T08:39:05.761Z,8.95
2022-11-16T08:41:35.947Z,8.70
2022-11-16T08:44:04.320Z,7.30
2022-11-16T08:46:33.117Z,7.40
2022-11-16T08:49:10.942Z,7.15
2022-11-16T08:51:38.584Z,6.90
2022-11-16T08:54:06.878Z,7.65
2022-11-16T08:56:37.780Z,6.63
2022-11-16T08:59:06.154Z,7.28
2022-11-16T09:01:34.224Z,6.68
2022-11-16T09:04:01.841Z,7.40
2022-11-16T09:06:29.451Z,8.10
2022-11-16T09:08:57.607Z,7.97
2022-11-16T09:11:25.953Z,7.28
2022-11-16T09:13:54.955Z,7.43
2022-11-16T09:16:23.980Z,7.72
2022-11-16T09:18:52.120Z,7.57
2022-11-16T09:21:27.389Z,8.40
2022-11-16T09:23:57.170Z,7.60
2022-11-16T09:26:26.311Z,7.88
2022-11-16T09:28:56.050Z,7.50
2022-11-16T09:31:24.526Z,7.47
2022-11-16T09:33:52.138Z,7.60
2022-11-16T09:36:21.340Z,10.13
2022-11-16T09:41:56.612Z,6.95
2022-11-16T09:44:27.068Z,7.35
2022-11-16T09:46:57.878Z,5.68
2022-11-16T09:49:35.928Z,4.67
2022-11-16T09:52:14.443Z,4.65
2022-11-16T09:54:45.201Z,3.92
2022-11-16T09:57:17.823Z,4.30
2022-11-16T09:59:48.703Z,3.05
2022-11-16T10:02:41.845Z,2.92
2022-11-16T10:05:22.843Z,2.90
2022-11-16T10:08:02.912Z,2.90
2022-11-16T10:10:54.802Z,3.75
2022-11-16T10:13:47.982Z,3.00
2022-11-16T10:16:35.982Z,2.95
2022-11-16T10:19:27.964Z,3.38
2022-11-16T10:22:00.842Z,3.33
2022-11-16T10:24:51.005Z,2.60
2022-11-16T10:27:22.286Z,3.33
2022-11-16T10:30:07.635Z,2.70
2022-11-16T10:32:53.167Z,3.25
2022-11-16T10:35:26.873Z,2.88
2022-11-16T10:37:55.286Z,3.25
2022-11-16T10:40:29.933Z,2.88
2022-11-16T10:43:20.282Z,3.65
2022-11-16T10:45:58.030Z,3.72
2022-11-16T10:48:48.437Z,3.38
2022-11-16T10:51:16.086Z,2.90
2022-11-16T10:53:44.363Z,2.88
2022-11-16T10:56:22.570Z,3.17
2022-11-16T10:58:51.062Z,2.90
2022-11-16T11:01:51.191Z,3.50
2022-11-16T11:04:27.271Z,3.67
2022-11-16T11:07:19.245Z,3.30
2022-11-16T11:09:52.931Z,3.20
2022-11-16T11:12:37.970Z,3.63
2022-11-16T11:15:11.651Z,3.65
2022-11-16T11:17:42.544Z,3.85
2022-11-16T11:20:16.788Z,3.47
2022-11-16T11:23:00.397Z,3.67
2022-11-16T11:25:33.700Z,3.95
2022-11-16T11:28:22.994Z,3.80
2022-11-16T11:31:11.730Z,3.15
2022-11-16T11:33:48.311Z,3.28
2022-11-16T11:36:20.813Z,3.10
2022-11-16T11:39:05.617Z,3.00
2022-11-16T11:41:42.968Z,3.03
2022-11-16T11:44:20.382Z,2.90
2022-11-16T11:47:42.509Z,2.53
2022-11-16T11:49:52.241Z,2.90
2022-11-16T11:52:27.686Z,2.70
2022-11-16T11:54:56.276Z,2.45
2022-11-16T11:57:25.599Z,2.47
2022-11-16T11:59:54.861Z,3.10
2022-11-16T12:02:42.567Z,2.55
2022-11-16T12:05:29.029Z,2.90
2022-11-16T12:07:59.382Z,2.80
2022-11-16T12:10:37.839Z,2.78
2022-11-16T12:13:31.953Z,2.80
2022-11-16T12:16:06.491Z,3.58
2022-11-16T12:18:52.053Z,2.88
2022-11-16T12:21:34.328Z,3.40
2022-11-16T12:24:10.511Z,2.70
2022-11-16T12:26:44.901Z,2.60
2022-11-16T12:29:37.208Z,2.63
2022-11-16T12:32:34.314Z,3.30
2022-11-16T12:35:08.152Z,2.45
2022-11-16T12:37:54.567Z,2.35
2022-11-16T12:41:07.070Z,2.55
2022-11-16T12:43:46.341Z,2.60
2022-11-16T12:46:51.250Z,2.38
2022-11-16T12:49:36.867Z,2.30
2022-11-16T12:52:26.010Z,2.60
2022-11-16T12:55:24.061Z,2.45
2022-11-16T12:57:43.974Z,2.40
2022-11-16T13:00:19.571Z,2.50
2022-11-16T13:03:05.598Z,2.70
2022-11-16T13:05:42.430Z,2.33
2022-11-16T13:08:19.997Z,2.70
2022-11-16T13:10:50.850Z,2.47
2022-11-16T13:13:41.145Z,2.47
2022-11-16T13:16:10.794Z,2.20
2022-11-16T13:18:41.844Z,2.45
2022-11-16T13:21:43.088Z,2.30
2022-11-16T13:24:29.671Z,2.67
2022-11-16T13:27:15.362Z,2.88
2022-11-16T13:30:21.970Z,2.20
2022-11-16T13:33:07.618Z,2.15
2022-11-16T13:35:38.872Z,1.83
2022-11-16T13:38:13.353Z,2.28
2022-11-16T13:40:41.237Z,1.90
2022-11-16T13:43:11.879Z,1.75
2022-11-16T13:45:50.446Z,1.67
2022-11-16T13:48:37.671Z,2.20
2022-11-16T13:51:08.874Z,2.42
2022-11-16T13:56:49.443Z,2.03
2022-11-16T13:59:24.356Z,2.90
2022-11-16T14:01:58.161Z,2.00
2022-11-16T14:04:41.322Z,2.38
2022-11-16T14:07:28.567Z,2.22
2022-11-16T14:09:56.341Z,2.38
2022-11-16T14:12:39.175Z,2.40
2022-11-16T14:15:22.084Z,2.60
2022-11-16T14:18:02.337Z,2.50
2022-11-16T14:20:39.084Z,3.00
2022-11-16T14:23:16.302Z,2.67
2022-11-16T14:25:49.761Z,2.92
2022-11-16T14:28:29.620Z,2.30
2022-11-16T14:31:12.833Z,2.33
2022-11-16T14:33:40.450Z,2.17
2022-11-16T14:36:10.074Z,2.33
2022-11-16T14:38:42.947Z,2.22
2022-11-16T14:41:21.123Z,2.50
2022-11-16T14:43:55.297Z,2.40
2022-11-16T14:46:26.346Z,2.50
2022-11-16T14:48:59.388Z,2.25
2022-11-16T14:51:36.910Z,2.30
2022-11-16T14:54:26.595Z,2.05
2022-11-16T14:57:02.426Z,2.50
2022-11-16T14:59:31.212Z,2.20
2022-11-16T15:02:24.242Z,2.92
2022-11-16T15:04:53.592Z,2.20
2022-11-16T15:07:24.795Z,1.95
2022-11-16T15:09:59.195Z,2.78
2022-11-16T15:12:44.040Z,2.63
2022-11-16T15:15:11.611Z,3.00
2022-11-16T15:17:44.391Z,1.90
2022-11-16T15:20:22.310Z,2.53
2022-11-16T15:22:55.311Z,2.22
2022-11-16T15:25:33.371Z,2.50
2022-11-16T15:28:18.126Z,3.05
2022-11-16T15:30:49.581Z,2.63
2022-11-16T15:33:24.055Z,2.13
2022-11-16T15:35:53.999Z,2.53
2022-11-16T15:38:24.795Z,2.35
2022-11-16T15:40:56.185Z,2.50
2022-11-16T15:43:28.599Z,2.40
2022-11-16T15:45:57.098Z,7.25
2022-11-16T15:48:26.457Z,6.65
2022-11-16T15:51:07.254Z,2.47
2022-11-16T15:53:39.744Z,2.50
2022-11-16T15:56:13.233Z,2.42
2022-11-16T15:58:42.278Z,2.55
2022-11-16T16:01:11.754Z,2.42
2022-11-16T16:03:46.053Z,2.45
2022-11-16T16:06:15.831Z,2.95
2022-11-16T16:08:45.150Z,2.50
2022-11-16T16:11:27.613Z,2.55
2022-11-16T16:14:02.826Z,2.20
2022-11-16T16:16:37.955Z,2.10
2022-11-16T16:19:25.627Z,1.75
2022-11-16T16:21:53.446Z,2.30
2022-11-16T16:24:42.895Z,2.47
2022-11-16T16:27:22.045Z,2.70
2022-11-16T16:29:51.705Z,2.63
2022-11-16T16:32:22.102Z,2.30
2022-11-16T16:34:50.375Z,2.50
2022-11-16T16:37:17.923Z,3.10
2022-11-16T16:39:45.589Z,3.00
2022-11-16T16:42:15.558Z,2.95
2022-11-16T16:44:44.509Z,3.08
2022-11-16T16:47:12.636Z,3.13
2022-11-16T16:49:40.683Z,3.17
2022-11-16T16:52:11.149Z,3.60
2022-11-16T16:54:39.242Z,3.10
2022-11-16T16:57:11.798Z,3.35
2022-11-16T16:59:40.335Z,3.90
2022-11-16T17:02:11.459Z,3.10
2022-11-16T17:04:39.110Z,3.22
2022-11-16T17:07:06.738Z,3.50
2022-11-16T17:09:34.334Z,2.85
2022-11-16T17:12:01.867Z,2.90
2022-11-16T17:14:29.430Z,3.17
2022-11-16T17:16:57.068Z,2.75
2022-11-16T17:19:24.893Z,3.17
2022-11-16T17:21:52.551Z,2.53
2022-11-16T17:24:20.206Z,3.50
2022-11-16T17:26:50.752Z,4.30
2022-11-16T17:29:18.289Z,4.03
2022-11-16T17:31:47.392Z,3.67
2022-11-16T17:34:14.966Z,4.20
2022-11-16T17:36:43.489Z,4.35
2022-11-16T17:39:15.940Z,4.95
2022-11-16T17:41:43.504Z,4.68
2022-11-16T17:44:11.257Z,4.18
2022-11-16T17:46:38.845Z,5.07
2022-11-16T17:49:06.444Z,5.32
2022-11-16T17:51:34.042Z,4.78
2022-11-16T17:54:01.810Z,5.15
2022-11-16T17:56:30.377Z,5.45
2022-11-16T17:59:00.912Z,5.55
2022-11-16T18:01:28.692Z,5.15
2022-11-16T18:03:56.295Z,5.72
2022-11-16T18:08:19.854Z,5.90
2022-11-16T18:10:47.625Z,5.72
2022-11-16T18:13:15.431Z,6.10
2022-11-16T18:15:43.074Z,6.30
2022-11-16T18:18:10.619Z,6.82
2022-11-16T18:20:38.757Z,5.88
2022-11-16T18:23:06.426Z,6.45
2022-11-16T18:25:36.834Z,6.65
2022-11-16T18:28:05.214Z,7.20
2022-11-16T18:30:33.810Z,6.07
2022-11-16T18:33:02.282Z,5.95
2022-11-16T18:35:30.435Z,6.93
2022-11-16T18:37:59.392Z,8.05
2022-11-16T18:40:29.181Z,7.43
2022-11-16T18:43:00.481Z,7.38
2022-11-16T18:45:30.062Z,7.10
2022-11-16T18:48:09.287Z,8.25
2022-11-16T18:50:38.739Z,7.72
2022-11-16T18:53:09.239Z,8.90
2022-11-16T18:55:38.413Z,8.23
2022-11-16T18:58:22.786Z,8.32
2022-11-16T19:01:02.611Z,8.52
2022-11-16T19:03:32.987Z,9.38
2022-11-16T19:06:04.674Z,8.77
2022-11-16T19:08:33.314Z,9.20
2022-11-16T19:11:11.131Z,7.90
2022-11-16T19:13:40.831Z,7.95
2022-11-16T19:16:09.943Z,8.93
2022-11-16T19:18:38.391Z,9.80
2022-11-16T19:21:11.741Z,8.20
2022-11-16T19:23:45.322Z,8.98
2022-11-16T19:26:15.075Z,9.70
2022-11-16T19:28:44.951Z,8.98
2022-11-16T19:31:22.924Z,10.07
2022-11-16T19:33:57.227Z,10.70
2022-11-16T19:36:26.261Z,10.45
2022-11-16T19:38:54.286Z,10.10
2022-11-16T19:41:23.105Z,11.32
2022-11-16T19:44:01.892Z,9.65
2022-11-16T19:46:32.841Z,10.38
2022-11-16T19:49:02.017Z,9.65
2022-11-16T19:51:34.012Z,9.88
2022-11-16T19:54:03.879Z,9.77
2022-11-16T19:56:31.928Z,11.55
2022-11-16T19:59:00.493Z,9.75
2022-11-16T20:01:29.522Z,10.32
2022-11-16T20:04:00.977Z,10.10
2022-11-16T20:06:31.772Z,10.80
2022-11-16T20:09:02.969Z,10.02
2022-11-16T20:11:34.246Z,10.80
2022-11-16T20:14:04.099Z,10.48
2022-11-16T20:16:38.737Z,10.07
2022-11-16T20:19:10.416Z,10.75
2022-11-16T20:21:42.651Z,10.55
2022-11-16T20:24:13.509Z,9.65
2022-11-16T20:26:44.697Z,11.38
2022-11-16T20:29:14.034Z,12.00
2022-11-16T20:31:43.073Z,11.15
2022-11-16T20:34:14.926Z,11.60
2022-11-16T20:36:45.524Z,10.90
2022-11-16T20:39:17.318Z,10.48
2022-11-16T20:41:45.519Z,11.65
2022-11-16T20:44:17.935Z,11.18
2022-11-16T20:46:45.895Z,10.48
2022-11-16T20:49:14.146Z,10.40
2022-11-16T20:51:42.546Z,9.80
2022-11-16T20:54:10.397Z,10.07
2022-11-16T20:56:38.528Z,9.43
2022-11-16T20:59:08.871Z,10.15
2022-11-16T21:01:36.933Z,9.40
2022-11-16T21:04:06.394Z,9.82
2022-11-16T21:06:34.562Z,9.13
2022-11-16T21:09:02.461Z,10.77
2022-11-16T21:11:52.328Z,9.15
2022-11-16T21:14:20.939Z,9.05
2022-11-16T21:16:49.010Z,9.20
2022-11-16T21:19:17.310Z,9.98
2022-11-16T21:21:45.498Z,8.30
2022-11-16T21:24:13.607Z,9.23
2022-11-16T21:26:41.532Z,9.23
2022-11-16T21:29:09.858Z,9.18
2022-11-16T21:31:38.436Z,10.30
2022-11-16T21:34:07.564Z,9.45
2022-11-16T21:36:36.507Z,10.13
2022-11-16T21:39:04.753Z,10.48
2022-11-16T21:41:34.240Z,10.30
2022-11-16T21:44:02.363Z,11.23
2022-11-16T21:46:30.448Z,11.55
2022-11-16T21:48:58.226Z,14.35
2022-11-16T21:51:27.130Z,12.50
2022-11-16T21:53:55.616Z,13.82
2022-11-16T21:56:25.858Z,13.18
2022-11-16T21:58:54.245Z,12.52
2022-11-16T22:01:23.614Z,12.20
2022-11-16T22:04:11.609Z,11.75
2022-11-16T22:06:57.970Z,12.80
2022-11-16T22:09:40.950Z,12.88
2022-11-16T22:12:08.444Z,12.10
2022-11-16T22:14:36.040Z,11.70
2022-11-16T22:17:04.626Z,13.48
2022-11-16T22:19:32.221Z,16.35
2022-11-16T22:21:59.994Z,15.43
2022-11-16T22:24:27.666Z,15.07
2022-11-16T22:26:55.571Z,16.08
2022-11-16T22:29:23.105Z,15.75
2022-11-16T22:31:51.435Z,15.50
2022-11-16T22:34:18.944Z,16.15
2022-11-16T22:36:46.434Z,15.70
2022-11-16T22:39:14.236Z,16.30
2022-11-16T22:41:42.840Z,16.38
2022-11-16T22:44:10.390Z,15.55
2022-11-16T22:46:37.880Z,15.45
2022-11-16T22:49:05.601Z,15.18
2022-11-16T22:51:34.046Z,16.02
2022-11-16T22:54:04.574Z,13.95
2022-11-16T22:56:33.515Z,13.35
2022-11-16T22:59:02.531Z,11.65
2022-11-16T23:01:30.250Z,12.75
2022-11-16T23:03:58.034Z,11.98
2022-11-16T23:06:25.667Z,12.07
2022-11-16T23:08:53.272Z,11.52
2022-11-16T23:11:41.429Z,11.95
2022-11-16T23:14:32.920Z,11.35
2022-11-16T23:17:01.661Z,12.45
2022-11-16T23:19:47.903Z,13.05
2022-11-16T23:22:36.796Z,11.77
2022-11-16T23:25:25.582Z,12.35
2022-11-16T23:28:07.869Z,11.50
2022-11-16T23:30:36.795Z,11.70
2022-11-16T23:33:04.480Z,11.15
2022-11-16T23:35:32.267Z,11.40
2022-11-16T23:38:02.374Z,11.00
2022-11-16T23:40:38.864Z,10.98
2022-11-16T23:43:28.320Z,11.52
2022-11-16T23:45:56.031Z,12.25
2022-11-16T23:48:23.589Z,11.40
2022-11-16T23:50:51.277Z,10.88
2022-11-16T23:53:18.804Z,12.13
2022-11-16T23:55:47.576Z,11.43
2022-11-16T23:58:15.548Z,11.13
